Time;durP1;ratioP1;P1;durP2;ratioP2;P2;SDS_P1;SDS_P2;PMS_P1;PMS_P2;Temp;Humidity;BMP_temperature;BMP_pressure;BME280_temperature;BME280_humidity;BME280_pressure;Samples;Min_cycle;Max_cycle;Signal;HPM_P1;HPM_P2
2022/02/17 00:00:14;;;;;;;39.98;26.55;;;;;;;;;;794315;74;26250;-79
2022/02/17 00:01:17;;;;;;;34.70;25.57;;;;;;;;;;794387;74;26363;-79
2022/02/17 00:02:20;;;;;;;38.48;26.37;;;;;;;;;;794379;74;26762;-79
2022/02/17 00:03:24;;;;;;;38.73;27.52;;;;;;;;;;794416;74;26374;-81
2022/02/17 00:04:27;;;;;;;39.00;27.65;;;;;;;;;;794425;74;26359;-79
2022/02/17 00:05:29;;;;;;;39.38;26.42;;;;;;;;;;794549;74;26747;-79
2022/02/17 00:06:32;;;;;;;37.78;27.93;;;;;;;;;;794415;74;26300;-79
2022/02/17 00:07:35;;;;;;;41.53;25.72;;;;;;;;;;794356;74;26762;-81
2022/02/17 00:08:37;;;;;;;40.03;27.20;;;;;;;;;;794449;74;26726;-78
2022/02/17 00:09:40;;;;;;;42.00;28.02;;;;;;;;;;794264;74;25272;-81
2022/02/17 00:10:43;;;;;;;40.80;27.17;;;;;;;;;;794464;74;26281;-79
2022/02/17 00:11:47;;;;;;;39.33;27.85;;;;;;;;;;780696;74;26307;-81
2022/02/17 00:12:51;;;;;;;44.93;28.65;;;;;;;;;;777972;76;24353;-80
2022/02/17 00:13:53;;;;;;;44.80;27.65;;;;;;;;;;794395;73;26775;-82
2022/02/17 00:14:56;;;;;;;41.95;29.00;;;;;;;;;;794338;74;26274;-78
2022/02/17 00:15:58;;;;;;;42.73;29.63;;;;;;;;;;794366;74;26828;-78
2022/02/17 00:17:01;;;;;;;46.55;28.95;;;;;;;;;;794395;74;26363;-78
2022/02/17 00:18:11;;;;;;;41.10;28.23;;;;;;;;;;794468;74;26336;-76
2022/02/17 00:19:14;;;;;;;44.15;29.80;;;;;;;;;;794474;74;26309;-78
2022/02/17 00:20:17;;;;;;;44.25;30.15;;;;;;;;;;794453;74;26533;-80
2022/02/17 00:21:19;;;;;;;44.10;29.98;;;;;;;;;;794335;74;26617;-79
2022/02/17 00:22:22;;;;;;;39.15;27.35;;;;;;;;;;794443;74;26285;-78
2022/02/17 00:23:25;;;;;;;45.83;28.98;;;;;;;;;;794465;74;26281;-78
2022/02/17 00:24:28;;;;;;;43.00;29.45;;;;;;;;;;794503;74;26293;-78
2022/02/17 00:25:31;;;;;;;42.38;29.32;;;;;;;;;;794424;74;26783;-78
2022/02/17 00:26:35;;;;;;;40.75;27.48;;;;;;;;;;794284;74;26238;-77
2022/02/17 00:27:39;;;;;;;39.18;27.60;;;;;;;;;;794315;74;26313;-80
2022/02/17 00:28:42;;;;;;;42.13;28.17;;;;;;;;;;794445;74;26281;-78
2022/02/17 00:29:44;;;;;;;39.60;27.70;;;;;;;;;;794200;74;26324;-79
2022/02/17 00:30:47;;;;;;;43.00;28.50;;;;;;;;;;794383;74;26317;-80
2022/02/17 00:31:50;;;;;;;41.53;28.55;;;;;;;;;;794397;74;26392;-80
2022/02/17 00:32:53;;;;;;;40.75;28.75;;;;;;;;;;794259;74;26849;-81
2022/02/17 00:33:56;;;;;;;40.92;28.77;;;;;;;;;;794398;74;26327;-79
2022/02/17 00:34:58;;;;;;;41.75;28.90;;;;;;;;;;794472;74;26339;-78
2022/02/17 00:36:01;;;;;;;45.28;29.48;;;;;;;;;;794432;74;26528;-77
2022/02/17 00:37:05;;;;;;;44.98;28.60;;;;;;;;;;794340;74;26230;-80
2022/02/17 00:38:08;;;;;;;39.85;28.52;;;;;;;;;;794358;74;26744;-79
2022/02/17 00:39:11;;;;;;;38.17;27.67;;;;;;;;;;794135;74;26359;-79
2022/02/17 00:40:14;;;;;;;38.25;26.55;;;;;;;;;;794411;74;26666;-77
2022/02/17 00:41:18;;;;;;;45.98;28.65;;;;;;;;;;794392;74;27299;-78
2022/02/17 00:42:21;;;;;;;40.23;26.90;;;;;;;;;;794343;74;26343;-79
2022/02/17 00:43:23;;;;;;;43.23;27.13;;;;;;;;;;794370;74;26453;-81
2022/02/17 00:44:26;;;;;;;36.80;26.60;;;;;;;;;;794419;74;26417;-78
2022/02/17 00:45:29;;;;;;;42.48;27.52;;;;;;;;;;794510;74;26739;-79
2022/02/17 00:46:32;;;;;;;37.42;25.92;;;;;;;;;;794484;74;26251;-80
2022/02/17 00:47:35;;;;;;;35.30;24.80;;;;;;;;;;794431;74;26301;-78
2022/02/17 00:48:37;;;;;;;38.45;26.35;;;;;;;;;;794375;74;26710;-79
2022/02/17 00:49:40;;;;;;;38.17;27.15;;;;;;;;;;794397;74;26339;-76
2022/02/17 00:50:43;;;;;;;37.63;26.35;;;;;;;;;;794392;74;26708;-79
2022/02/17 00:51:46;;;;;;;42.08;27.45;;;;;;;;;;794470;74;26324;-79
2022/02/17 00:52:49;;;;;;;34.90;26.00;;;;;;;;;;794289;74;26391;-80
2022/02/17 00:53:52;;;;;;;33.10;24.65;;;;;;;;;;794322;74;26367;-79
2022/02/17 00:54:54;;;;;;;36.58;26.50;;;;;;;;;;794317;74;26286;-79
2022/02/17 00:55:59;;;;;;;36.30;26.37;;;;;;;;;;794262;74;26329;-78
2022/02/17 00:57:01;;;;;;;38.80;27.15;;;;;;;;;;794446;74;26434;-80
2022/02/17 00:58:04;;;;;;;37.50;26.97;;;;;;;;;;787949;74;26243;-77
2022/02/17 00:59:07;;;;;;;42.65;27.98;;;;;;;;;;782672;76;27198;-80
2022/02/17 01:00:11;;;;;;;38.13;26.30;;;;;;;;;;782721;76;26415;-78
2022/02/17 01:01:13;;;;;;;39.70;28.05;;;;;;;;;;782782;76;26402;-80
2022/02/17 01:02:16;;;;;;;41.08;29.82;;;;;;;;;;782864;75;26348;-79
2022/02/17 01:03:19;;;;;;;45.15;29.75;;;;;;;;;;782745;76;26379;-79
2022/02/17 01:04:21;;;;;;;42.33;29.45;;;;;;;;;;782851;76;26575;-77
2022/02/17 01:05:24;;;;;;;38.78;28.75;;;;;;;;;;782728;76;26326;-80
2022/02/17 01:06:27;;;;;;;49.00;30.02;;;;;;;;;;782839;75;26295;-77
2022/02/17 01:07:30;;;;;;;51.40;36.85;;;;;;;;;;782858;76;26325;-79
2022/02/17 01:08:32;;;;;;;55.20;38.65;;;;;;;;;;782694;76;26283;-82
2022/02/17 01:09:36;;;;;;;51.13;35.08;;;;;;;;;;782819;76;26426;-79
2022/02/17 01:10:39;;;;;;;43.87;30.90;;;;;;;;;;782753;75;26560;-78
2022/02/17 01:11:42;;;;;;;41.40;28.92;;;;;;;;;;782628;76;26329;-78
2022/02/17 01:12:44;;;;;;;43.65;29.57;;;;;;;;;;782848;76;26722;-79
2022/02/17 01:13:47;;;;;;;40.90;28.52;;;;;;;;;;782713;76;26290;-79
2022/02/17 01:14:50;;;;;;;45.58;29.05;;;;;;;;;;782819;75;26722;-78
2022/02/17 01:15:52;;;;;;;39.50;27.87;;;;;;;;;;782713;76;26838;-80
2022/02/17 01:16:55;;;;;;;41.83;29.30;;;;;;;;;;782709;76;26786;-79
2022/02/17 01:17:58;;;;;;;43.42;28.55;;;;;;;;;;782788;76;26926;-80
2022/02/17 01:19:01;;;;;;;38.90;27.87;;;;;;;;;;782779;76;26349;-78
2022/02/17 01:20:06;;;;;;;40.88;28.07;;;;;;;;;;782626;75;26365;-79
2022/02/17 01:21:08;;;;;;;36.93;27.45;;;;;;;;;;782864;76;26370;-78
2022/02/17 01:22:12;;;;;;;38.78;26.65;;;;;;;;;;782706;76;26786;-77
2022/02/17 01:23:14;;;;;;;37.38;26.60;;;;;;;;;;782798;76;26336;-79
2022/02/17 01:24:17;;;;;;;38.90;27.58;;;;;;;;;;782827;76;26392;-78
2022/02/17 01:25:20;;;;;;;42.13;27.58;;;;;;;;;;782787;76;26291;-79
2022/02/17 01:26:23;;;;;;;40.38;28.10;;;;;;;;;;782798;76;26689;-77
2022/02/17 01:27:26;;;;;;;40.43;28.65;;;;;;;;;;782678;76;26542;-79
2022/02/17 01:28:29;;;;;;;41.23;28.32;;;;;;;;;;782803;76;26352;-79
2022/02/17 01:29:32;;;;;;;41.15;28.05;;;;;;;;;;782801;76;26712;-78
2022/02/17 01:30:35;;;;;;;40.60;28.80;;;;;;;;;;782590;75;26365;-79
2022/02/17 01:31:37;;;;;;;40.58;28.90;;;;;;;;;;782780;76;26405;-81
2022/02/17 01:32:40;;;;;;;39.75;28.45;;;;;;;;;;782682;75;26962;-77
2022/02/17 01:33:43;;;;;;;40.95;28.73;;;;;;;;;;782681;75;26383;-78
2022/02/17 01:34:46;;;;;;;39.98;27.20;;;;;;;;;;782723;76;26307;-79
2022/02/17 01:35:49;;;;;;;41.10;28.05;;;;;;;;;;782828;76;26294;-79
2022/02/17 01:36:51;;;;;;;36.42;26.65;;;;;;;;;;782872;76;26756;-80
2022/02/17 01:37:54;;;;;;;42.45;28.30;;;;;;;;;;782838;76;26298;-81
2022/02/17 01:38:57;;;;;;;40.15;26.97;;;;;;;;;;782700;75;26290;-81
2022/02/17 01:39:59;;;;;;;39.30;27.37;;;;;;;;;;782730;76;26794;-78
2022/02/17 01:41:03;;;;;;;38.88;27.02;;;;;;;;;;782839;76;26345;-79
2022/02/17 01:42:09;;;;;;;36.33;26.57;;;;;;;;;;782934;76;26306;-79
2022/02/17 01:43:17;;;;;;;36.55;27.20;;;;;;;;;;782789;75;26271;-78
2022/02/17 01:44:19;;;;;;;41.92;27.22;;;;;;;;;;782877;75;26315;-77
2022/02/17 01:45:22;;;;;;;37.73;26.60;;;;;;;;;;782830;75;26725;-77
2022/02/17 01:46:29;;;;;;;32.63;23.65;;;;;;;;;;782792;76;26286;-79
2022/02/17 01:47:32;;;;;;;35.28;25.02;;;;;;;;;;782829;75;26348;-78
2022/02/17 01:48:34;;;;;;;33.38;24.27;;;;;;;;;;782858;76;26744;-79
2022/02/17 01:49:37;;;;;;;34.25;24.72;;;;;;;;;;782810;76;26356;-80
2022/02/17 01:50:43;;;;;;;39.65;25.00;;;;;;;;;;782699;76;26297;-80
2022/02/17 01:51:45;;;;;;;32.67;23.42;;;;;;;;;;782714;76;26295;-78
2022/02/17 01:52:48;;;;;;;31.20;23.65;;;;;;;;;;782733;76;26294;-79
2022/02/17 01:53:51;;;;;;;33.73;23.07;;;;;;;;;;782802;76;26236;-78
2022/02/17 01:54:54;;;;;;;34.92;24.32;;;;;;;;;;782774;76;26796;-78
2022/02/17 01:55:57;;;;;;;40.48;24.87;;;;;;;;;;782647;76;26368;-82
2022/02/17 01:57:01;;;;;;;33.92;23.87;;;;;;;;;;782789;75;26854;-77
2022/02/17 01:58:05;;;;;;;36.45;25.27;;;;;;;;;;782749;76;26685;-78
2022/02/17 01:59:09;;;;;;;33.30;23.57;;;;;;;;;;788164;75;26306;-78
2022/02/17 02:00:12;;;;;;;33.42;25.48;;;;;;;;;;792141;75;27053;-78
2022/02/17 02:01:16;;;;;;;34.50;24.67;;;;;;;;;;791957;75;26781;-78
2022/02/17 02:02:19;;;;;;;35.30;25.23;;;;;;;;;;791872;75;26262;-79
2022/02/17 02:03:23;;;;;;;40.58;26.15;;;;;;;;;;791897;75;26269;-78
2022/02/17 02:04:26;;;;;;;39.48;26.33;;;;;;;;;;791991;75;26829;-80
2022/02/17 02:05:28;;;;;;;33.15;24.25;;;;;;;;;;792191;75;26320;-78
2022/02/17 02:06:31;;;;;;;35.00;25.15;;;;;;;;;;792042;74;26303;-78
2022/02/17 02:07:34;;;;;;;34.00;24.25;;;;;;;;;;791961;75;26367;-76
2022/02/17 02:08:36;;;;;;;35.55;24.63;;;;;;;;;;791887;75;26242;-79
2022/02/17 02:09:40;;;;;;;34.65;26.37;;;;;;;;;;792041;75;26746;-80
2022/02/17 02:10:42;;;;;;;35.38;25.08;;;;;;;;;;791966;75;26297;-80
2022/02/17 02:11:46;;;;;;;39.13;25.92;;;;;;;;;;791919;75;26305;-81
2022/02/17 02:12:48;;;;;;;38.70;25.45;;;;;;;;;;791885;75;26305;-79
2022/02/17 02:13:51;;;;;;;37.13;25.72;;;;;;;;;;792004;75;26309;-79
2022/02/17 02:14:55;;;;;;;38.45;25.02;;;;;;;;;;792005;75;26294;-76
2022/02/17 02:15:58;;;;;;;34.50;25.00;;;;;;;;;;792044;75;26305;-79
2022/02/17 02:17:01;;;;;;;36.80;24.98;;;;;;;;;;792047;75;26238;-77
2022/02/17 02:18:05;;;;;;;39.95;26.48;;;;;;;;;;791899;75;26652;-78
2022/02/17 02:19:08;;;;;;;37.23;26.60;;;;;;;;;;791998;75;26278;-77
2022/02/17 02:20:15;;;;;;;35.48;25.90;;;;;;;;;;792055;75;26278;-80
2022/02/17 02:21:19;;;;;;;34.15;25.60;;;;;;;;;;792033;73;26313;-78
2022/02/17 02:22:22;;;;;;;37.53;27.62;;;;;;;;;;792017;75;26282;-80
2022/02/17 02:23:25;;;;;;;35.20;25.77;;;;;;;;;;791977;75;26292;-80
2022/02/17 02:24:27;;;;;;;35.98;25.80;;;;;;;;;;791991;75;26285;-77
2022/02/17 02:25:30;;;;;;;37.42;26.05;;;;;;;;;;792028;75;26317;-77
2022/02/17 02:26:34;;;;;;;41.25;27.07;;;;;;;;;;791930;75;26717;-77
2022/02/17 02:27:36;;;;;;;38.17;26.75;;;;;;;;;;791954;75;26367;-80
2022/02/17 02:28:40;;;;;;;38.55;27.10;;;;;;;;;;792087;75;26801;-80
2022/02/17 02:29:43;;;;;;;36.93;26.93;;;;;;;;;;791964;75;26747;-79
2022/02/17 02:30:46;;;;;;;38.63;26.93;;;;;;;;;;791944;75;26227;-79
2022/02/17 02:31:48;;;;;;;40.85;27.00;;;;;;;;;;791921;75;26313;-78
2022/02/17 02:32:51;;;;;;;39.60;26.73;;;;;;;;;;792158;75;26336;-80
2022/02/17 02:33:54;;;;;;;40.40;27.90;;;;;;;;;;792085;75;26277;-79
2022/02/17 02:34:57;;;;;;;39.45;26.65;;;;;;;;;;791987;75;26305;-79
2022/02/17 02:36:01;;;;;;;40.30;26.87;;;;;;;;;;792148;75;26242;-76
2022/02/17 02:37:05;;;;;;;39.85;26.90;;;;;;;;;;792722;74;26321;-77
2022/02/17 02:38:08;;;;;;;37.48;26.07;;;;;;;;;;792168;75;26819;-82
2022/02/17 02:39:11;;;;;;;37.30;27.22;;;;;;;;;;791938;75;26290;-81
2022/02/17 02:40:13;;;;;;;38.33;27.27;;;;;;;;;;792177;75;26317;-76
2022/02/17 02:41:16;;;;;;;40.03;26.70;;;;;;;;;;792000;75;26292;-78
2022/02/17 02:42:20;;;;;;;38.78;27.05;;;;;;;;;;791986;75;26661;-79
2022/02/17 02:43:23;;;;;;;36.15;26.37;;;;;;;;;;792060;75;26254;-77
2022/02/17 02:44:27;;;;;;;39.78;27.17;;;;;;;;;;791970;75;26351;-80
2022/02/17 02:45:31;;;;;;;38.50;26.55;;;;;;;;;;792003;75;27121;-79
2022/02/17 02:46:34;;;;;;;35.92;27.13;;;;;;;;;;792001;75;26227;-78
2022/02/17 02:47:37;;;;;;;36.50;26.25;;;;;;;;;;792101;75;26333;-80
2022/02/17 02:48:39;;;;;;;37.03;27.17;;;;;;;;;;792097;75;26762;-77
2022/02/17 02:49:42;;;;;;;38.80;26.57;;;;;;;;;;792143;75;27469;-80
2022/02/17 02:50:45;;;;;;;38.63;26.45;;;;;;;;;;792096;75;26695;-79
2022/02/17 02:51:48;;;;;;;41.33;27.87;;;;;;;;;;791908;75;26294;-78
2022/02/17 02:52:51;;;;;;;37.15;25.92;;;;;;;;;;792041;75;26242;-78
2022/02/17 02:53:54;;;;;;;33.83;25.55;;;;;;;;;;791862;75;26234;-78
2022/02/17 02:54:57;;;;;;;38.85;26.37;;;;;;;;;;792025;75;26305;-79
2022/02/17 02:56:00;;;;;;;39.67;26.93;;;;;;;;;;792035;75;26305;-79
2022/02/17 02:57:02;;;;;;;40.20;28.07;;;;;;;;;;792030;75;26293;-78
2022/02/17 02:58:05;;;;;;;34.92;26.30;;;;;;;;;;791901;75;26362;-80
2022/02/17 02:59:08;;;;;;;38.63;26.77;;;;;;;;;;792034;75;26317;-79
2022/02/17 03:00:10;;;;;;;38.20;27.42;;;;;;;;;;787138;75;26338;-78
2022/02/17 03:01:13;;;;;;;37.42;25.52;;;;;;;;;;783834;75;26287;-78
2022/02/17 03:02:16;;;;;;;37.30;25.55;;;;;;;;;;783744;75;26400;-78
2022/02/17 03:03:18;;;;;;;38.85;26.35;;;;;;;;;;783719;75;26251;-78
2022/02/17 03:04:21;;;;;;;36.28;26.65;;;;;;;;;;783790;75;26328;-77
2022/02/17 03:05:24;;;;;;;38.88;27.37;;;;;;;;;;783741;75;26352;-80
2022/02/17 03:06:29;;;;;;;37.50;25.00;;;;;;;;;;783839;75;26364;-79
2022/02/17 03:07:32;;;;;;;35.00;26.05;;;;;;;;;;783735;74;26795;-79
2022/02/17 03:08:34;;;;;;;39.15;25.35;;;;;;;;;;783648;75;26247;-79
2022/02/17 03:09:37;;;;;;;37.50;26.20;;;;;;;;;;783811;75;26298;-76
2022/02/17 03:10:40;;;;;;;35.20;25.72;;;;;;;;;;783692;75;26287;-80
2022/02/17 03:11:42;;;;;;;35.88;27.07;;;;;;;;;;783807;75;26992;-80
2022/02/17 03:12:45;;;;;;;34.98;25.65;;;;;;;;;;783714;75;26314;-78
2022/02/17 03:13:48;;;;;;;36.45;26.50;;;;;;;;;;783698;75;26388;-79
2022/02/17 03:14:50;;;;;;;40.17;26.17;;;;;;;;;;783821;75;26272;-78
2022/02/17 03:15:53;;;;;;;35.98;26.45;;;;;;;;;;783683;75;26716;-78
2022/02/17 03:16:56;;;;;;;38.58;25.75;;;;;;;;;;783814;75;26274;-79
2022/02/17 03:17:58;;;;;;;37.63;25.62;;;;;;;;;;783522;75;26275;-77
2022/02/17 03:19:01;;;;;;;38.50;25.95;;;;;;;;;;783828;75;26344;-78
2022/02/17 03:20:07;;;;;;;38.98;26.05;;;;;;;;;;783808;75;26403;-79
2022/02/17 03:21:08;;;;;;;32.63;25.70;;;;;;;;;;783731;74;26692;-79
2022/02/17 03:22:11;;;;;;;34.58;25.20;;;;;;;;;;783789;75;26279;-79
2022/02/17 03:23:14;;;;;;;36.45;26.02;;;;;;;;;;783755;75;26433;-81
2022/02/17 03:24:16;;;;;;;39.35;24.72;;;;;;;;;;783851;75;26340;-79
2022/02/17 03:25:20;;;;;;;40.95;26.75;;;;;;;;;;783692;75;26238;-76
2022/02/17 03:26:22;;;;;;;37.17;26.65;;;;;;;;;;783862;75;26243;-79
2022/02/17 03:27:27;;;;;;;37.73;25.80;;;;;;;;;;783936;75;26288;-79
2022/02/17 03:28:31;;;;;;;37.23;27.25;;;;;;;;;;783852;75;26399;-78
2022/02/17 03:29:34;;;;;;;37.13;26.12;;;;;;;;;;783925;75;26294;-79
2022/02/17 03:30:36;;;;;;;38.92;26.15;;;;;;;;;;783938;75;26329;-79
2022/02/17 03:31:39;;;;;;;42.20;26.73;;;;;;;;;;783865;75;26391;-80
2022/02/17 03:32:42;;;;;;;38.42;26.75;;;;;;;;;;784087;75;26243;-79
2022/02/17 03:33:46;;;;;;;37.83;26.27;;;;;;;;;;784021;75;26446;-78
2022/02/17 03:34:49;;;;;;;35.28;24.72;;;;;;;;;;783880;75;26282;-78
2022/02/17 03:35:51;;;;;;;33.25;24.52;;;;;;;;;;784217;75;26286;-80
2022/02/17 03:36:54;;;;;;;34.53;25.45;;;;;;;;;;784777;75;26751;-79
2022/02/17 03:37:57;;;;;;;34.73;26.00;;;;;;;;;;784016;75;26739;-78
2022/02/17 03:39:00;;;;;;;38.23;24.35;;;;;;;;;;783822;75;26424;-80
2022/02/17 03:40:04;;;;;;;35.63;24.25;;;;;;;;;;783799;75;26751;-79
2022/02/17 03:41:07;;;;;;;35.63;25.10;;;;;;;;;;783878;75;26301;-79
2022/02/17 03:42:10;;;;;;;35.25;25.45;;;;;;;;;;783901;75;26309;-78
2022/02/17 03:43:12;;;;;;;35.28;25.15;;;;;;;;;;783962;75;26298;-80
2022/02/17 03:44:15;;;;;;;36.60;25.52;;;;;;;;;;784623;75;26310;-79
2022/02/17 03:45:18;;;;;;;35.50;25.12;;;;;;;;;;784467;75;26689;-80
2022/02/17 03:46:21;;;;;;;36.33;26.23;;;;;;;;;;784496;75;26298;-81
2022/02/17 03:47:23;;;;;;;35.15;25.40;;;;;;;;;;784455;75;26690;-81
2022/02/17 03:48:26;;;;;;;36.93;25.40;;;;;;;;;;784779;75;26310;-81
2022/02/17 03:49:29;;;;;;;38.50;25.82;;;;;;;;;;784802;75;26307;-79
2022/02/17 03:50:31;;;;;;;37.65;25.72;;;;;;;;;;784574;75;26282;-77
2022/02/17 03:51:34;;;;;;;38.67;25.95;;;;;;;;;;785101;75;26231;-79
2022/02/17 03:52:38;;;;;;;37.70;26.12;;;;;;;;;;785084;75;26326;-80
2022/02/17 03:53:40;;;;;;;36.00;26.73;;;;;;;;;;784963;75;26368;-81
2022/02/17 03:54:43;;;;;;;41.05;26.97;;;;;;;;;;785055;75;26516;-82
2022/02/17 03:55:46;;;;;;;36.42;25.43;;;;;;;;;;785179;75;26235;-78
2022/02/17 03:56:48;;;;;;;36.25;25.65;;;;;;;;;;785083;75;27129;-79
2022/02/17 03:57:51;;;;;;;34.13;25.40;;;;;;;;;;784824;75;26287;-79
2022/02/17 03:59:04;;;;;;;37.13;27.25;;;;;;;;;;784445;75;26376;-78
2022/02/17 04:00:08;;;;;;;35.88;24.87;;;;;;;;;;783837;75;26342;-80
2022/02/17 04:01:11;;;;;;;35.63;25.30;;;;;;;;;;783831;74;26294;-79
2022/02/17 04:02:14;;;;;;;37.58;25.60;;;;;;;;;;783718;75;26298;-79
2022/02/17 04:03:17;;;;;;;36.65;26.42;;;;;;;;;;783854;75;27578;-79
2022/02/17 04:04:19;;;;;;;35.40;25.95;;;;;;;;;;783692;75;26762;-80
2022/02/17 04:05:22;;;;;;;36.68;25.45;;;;;;;;;;783828;75;26708;-78
2022/02/17 04:06:25;;;;;;;36.23;25.43;;;;;;;;;;783834;75;26301;-80
2022/02/17 04:07:28;;;;;;;38.33;25.43;;;;;;;;;;783679;75;26290;-82
2022/02/17 04:08:30;;;;;;;35.78;25.52;;;;;;;;;;783829;75;26286;-80
2022/02/17 04:09:34;;;;;;;38.23;25.95;;;;;;;;;;783855;75;26340;-79
2022/02/17 04:10:37;;;;;;;37.15;25.17;;;;;;;;;;783707;75;26266;-77
2022/02/17 04:11:40;;;;;;;32.55;25.00;;;;;;;;;;783873;75;26342;-80
2022/02/17 04:12:43;;;;;;;36.88;25.23;;;;;;;;;;783904;75;26287;-80
2022/02/17 04:13:46;;;;;;;37.38;25.25;;;;;;;;;;783863;75;26963;-78
2022/02/17 04:14:49;;;;;;;36.50;25.43;;;;;;;;;;783814;75;26298;-79
2022/02/17 04:15:52;;;;;;;37.73;24.67;;;;;;;;;;783780;75;26732;-79
2022/02/17 04:16:54;;;;;;;32.38;24.25;;;;;;;;;;783876;75;26779;-80
2022/02/17 04:17:57;;;;;;;38.30;25.68;;;;;;;;;;783758;75;26286;-80
2022/02/17 04:18:59;;;;;;;37.45;26.42;;;;;;;;;;783822;75;26286;-78
2022/02/17 04:20:02;;;;;;;38.02;26.02;;;;;;;;;;783908;75;26633;-80
2022/02/17 04:21:05;;;;;;;37.58;26.00;;;;;;;;;;783813;75;26752;-79
2022/02/17 04:22:08;;;;;;;40.78;26.73;;;;;;;;;;783816;75;26333;-79
2022/02/17 04:23:11;;;;;;;37.65;26.45;;;;;;;;;;783872;75;26332;-81
2022/02/17 04:24:14;;;;;;;33.73;25.30;;;;;;;;;;783900;75;26275;-79
2022/02/17 04:25:16;;;;;;;43.48;26.65;;;;;;;;;;783758;75;26279;-80
2022/02/17 04:26:20;;;;;;;39.78;27.02;;;;;;;;;;783768;75;26341;-79
2022/02/17 04:27:22;;;;;;;38.17;26.45;;;;;;;;;;783863;75;26760;-79
2022/02/17 04:28:25;;;;;;;34.25;24.60;;;;;;;;;;783862;75;26341;-79
2022/02/17 04:29:28;;;;;;;34.18;24.65;;;;;;;;;;783828;75;26392;-78
2022/02/17 04:30:31;;;;;;;36.70;25.97;;;;;;;;;;783774;75;26297;-82
2022/02/17 04:31:34;;;;;;;35.03;25.48;;;;;;;;;;783595;75;26756;-79
2022/02/17 04:32:37;;;;;;;40.35;27.07;;;;;;;;;;783756;75;26364;-81
2022/02/17 04:33:42;;;;;;;37.98;25.25;;;;;;;;;;770325;77;26940;-80
2022/02/17 04:34:44;;;;;;;40.45;27.32;;;;;;;;;;784063;75;26251;-79
2022/02/17 04:35:47;;;;;;;37.55;26.50;;;;;;;;;;784043;75;26880;-79
2022/02/17 04:36:50;;;;;;;38.80;27.75;;;;;;;;;;783858;75;26351;-80
2022/02/17 04:37:52;;;;;;;39.03;26.50;;;;;;;;;;783819;75;26353;-79
2022/02/17 04:38:55;;;;;;;39.58;26.73;;;;;;;;;;784113;75;26334;-78
2022/02/17 04:40:00;;;;;;;41.02;27.17;;;;;;;;;;783864;75;26279;-78
2022/02/17 04:42:24;;;;;;;39.03;25.72;;;;;;;;;;783856;75;26290;-76
2022/02/17 04:43:27;;;;;;;38.88;26.00;;;;;;;;;;783825;75;26287;-79
2022/02/17 04:44:29;;;;;;;36.08;25.95;;;;;;;;;;783686;75;26333;-80
2022/02/17 04:45:32;;;;;;;39.03;26.30;;;;;;;;;;783926;75;26243;-79
2022/02/17 04:46:35;;;;;;;37.75;26.25;;;;;;;;;;783958;75;26641;-78
2022/02/17 04:47:37;;;;;;;37.65;27.75;;;;;;;;;;783878;75;26282;-79
2022/02/17 04:48:40;;;;;;;36.65;27.10;;;;;;;;;;783867;75;26239;-77
2022/02/17 04:49:43;;;;;;;35.73;27.22;;;;;;;;;;783794;75;26223;-78
2022/02/17 04:50:46;;;;;;;37.17;26.93;;;;;;;;;;783780;75;26865;-79
2022/02/17 04:51:50;;;;;;;38.88;27.20;;;;;;;;;;783940;75;26353;-82
2022/02/17 04:52:53;;;;;;;40.50;27.65;;;;;;;;;;783868;75;26279;-79
2022/02/17 04:53:56;;;;;;;36.25;25.97;;;;;;;;;;783764;75;26299;-80
2022/02/17 04:54:58;;;;;;;38.98;28.62;;;;;;;;;;783824;75;26347;-80
2022/02/17 04:56:01;;;;;;;40.75;29.12;;;;;;;;;;783748;75;26669;-80
2022/02/17 04:57:04;;;;;;;40.83;28.60;;;;;;;;;;783878;75;26314;-81
2022/02/17 04:58:07;;;;;;;40.78;28.87;;;;;;;;;;783896;75;26384;-80
2022/02/17 04:59:10;;;;;;;40.25;29.52;;;;;;;;;;783825;75;26294;-79
2022/02/17 05:00:13;;;;;;;41.10;29.02;;;;;;;;;;784093;75;26392;-80
2022/02/17 05:01:15;;;;;;;42.20;28.67;;;;;;;;;;784551;75;26361;-78
2022/02/17 05:02:18;;;;;;;41.33;28.15;;;;;;;;;;784021;75;26302;-80
2022/02/17 05:03:26;;;;;;;36.42;26.68;;;;;;;;;;784105;75;26286;-80
2022/02/17 05:04:25;;;;;;;41.65;28.50;;;;;;;;;;782879;75;26837;-80
2022/02/17 05:05:28;;;;;;;36.77;29.20;;;;;;;;;;784090;75;26817;-80
2022/02/17 05:06:31;;;;;;;36.83;27.80;;;;;;;;;;784339;75;26270;-80
2022/02/17 05:07:38;;;;;;;38.80;26.68;;;;;;;;;;784804;75;26534;-79
2022/02/17 05:08:41;;;;;;;37.90;26.60;;;;;;;;;;784086;75;27197;-80
2022/02/17 05:09:45;;;;;;;41.35;27.90;;;;;;;;;;784139;75;26647;-79
2022/02/17 05:10:48;;;;;;;43.38;29.80;;;;;;;;;;784083;75;26376;-79
2022/02/17 05:11:50;;;;;;;41.50;28.65;;;;;;;;;;783998;75;26759;-79
2022/02/17 05:12:53;;;;;;;37.35;27.58;;;;;;;;;;784060;75;26783;-81
2022/02/17 05:13:56;;;;;;;36.60;26.40;;;;;;;;;;784189;75;26705;-80
2022/02/17 05:14:59;;;;;;;40.92;27.55;;;;;;;;;;784140;75;26333;-78
2022/02/17 05:16:01;;;;;;;38.33;27.07;;;;;;;;;;784229;75;26294;-76
2022/02/17 05:17:04;;;;;;;37.23;27.55;;;;;;;;;;784009;75;26293;-78
2022/02/17 05:18:08;;;;;;;40.15;27.40;;;;;;;;;;783840;75;26294;-87
2022/02/17 05:19:11;;;;;;;37.73;26.62;;;;;;;;;;784100;75;26356;-80
2022/02/17 05:20:14;;;;;;;40.43;30.20;;;;;;;;;;784124;75;26711;-81
2022/02/17 05:21:17;;;;;;;42.45;30.75;;;;;;;;;;784052;75;26306;-82
2022/02/17 05:22:20;;;;;;;45.03;29.15;;;;;;;;;;783715;75;26790;-80
2022/02/17 05:23:23;;;;;;;41.35;29.40;;;;;;;;;;783974;75;26784;-77
2022/02/17 05:24:25;;;;;;;45.55;30.68;;;;;;;;;;783822;75;26271;-78
2022/02/17 05:25:28;;;;;;;43.87;29.85;;;;;;;;;;783750;75;26998;-78
2022/02/17 05:26:31;;;;;;;51.42;34.25;;;;;;;;;;783974;75;26458;-81
2022/02/17 05:27:34;;;;;;;46.68;32.30;;;;;;;;;;783834;75;26784;-79
2022/02/17 05:28:36;;;;;;;43.92;31.57;;;;;;;;;;783796;75;26329;-78
2022/02/17 05:29:39;;;;;;;42.33;31.10;;;;;;;;;;783886;75;26310;-80
2022/02/17 05:30:42;;;;;;;46.68;32.70;;;;;;;;;;783451;75;26330;-77
2022/02/17 05:31:45;;;;;;;45.67;31.85;;;;;;;;;;784523;75;26282;-81
2022/02/17 05:32:48;;;;;;;46.90;33.00;;;;;;;;;;784443;75;26279;-84
2022/02/17 05:33:51;;;;;;;45.38;31.27;;;;;;;;;;784205;75;26337;-84
2022/02/17 05:34:55;;;;;;;48.13;33.08;;;;;;;;;;784143;75;26267;-84
2022/02/17 05:35:58;;;;;;;44.63;32.30;;;;;;;;;;784075;75;26318;-81
2022/02/17 05:37:01;;;;;;;42.55;31.17;;;;;;;;;;784218;75;26717;-85
2022/02/17 05:38:04;;;;;;;53.42;32.50;;;;;;;;;;784282;75;26228;-82
2022/02/17 05:39:08;;;;;;;44.85;31.60;;;;;;;;;;783987;75;26423;-79
2022/02/17 05:40:12;;;;;;;39.40;30.12;;;;;;;;;;783877;75;26294;-81
2022/02/17 05:41:14;;;;;;;43.87;31.55;;;;;;;;;;783978;75;26317;-83
2022/02/17 05:42:17;;;;;;;55.73;33.18;;;;;;;;;;784362;75;26238;-85
2022/02/17 05:43:19;;;;;;;54.03;32.48;;;;;;;;;;784510;75;26282;-81
2022/02/17 05:44:22;;;;;;;45.73;31.73;;;;;;;;;;784098;75;26270;-84
2022/02/17 05:45:30;;;;;;;46.63;32.45;;;;;;;;;;784127;75;26235;-85
2022/02/17 05:46:29;;;;;;;51.20;33.90;;;;;;;;;;784036;75;26376;-83
2022/02/17 05:47:32;;;;;;;44.88;32.35;;;;;;;;;;784013;75;26783;-84
2022/02/17 05:48:35;;;;;;;51.35;37.80;;;;;;;;;;784178;75;26381;-83
2022/02/17 05:49:38;;;;;;;45.83;34.25;;;;;;;;;;784205;75;26290;-81
2022/02/17 05:50:40;;;;;;;46.83;32.83;;;;;;;;;;783915;75;26439;-84
2022/02/17 05:51:43;;;;;;;44.70;32.58;;;;;;;;;;784457;75;26298;-84
2022/02/17 05:52:48;;;;;;;46.70;33.90;;;;;;;;;;784083;75;26328;-83
2022/02/17 05:53:50;;;;;;;45.00;30.88;;;;;;;;;;783922;75;26743;-78
2022/02/17 05:54:53;;;;;;;43.35;30.80;;;;;;;;;;783911;75;26311;-77
2022/02/17 05:55:56;;;;;;;43.52;32.05;;;;;;;;;;783764;75;26356;-78
2022/02/17 05:56:58;;;;;;;42.75;30.55;;;;;;;;;;783947;75;26787;-76
2022/02/17 05:58:01;;;;;;;41.60;32.23;;;;;;;;;;783937;75;26392;-78
2022/02/17 05:59:04;;;;;;;45.17;32.95;;;;;;;;;;784029;75;26752;-80
2022/02/17 06:00:07;;;;;;;48.17;32.28;;;;;;;;;;783966;75;26313;-78
2022/02/17 06:01:09;;;;;;;45.85;32.15;;;;;;;;;;783745;75;26332;-78
2022/02/17 06:02:12;;;;;;;44.83;31.42;;;;;;;;;;783823;75;26878;-77
2022/02/17 06:03:15;;;;;;;42.60;30.10;;;;;;;;;;792507;74;26302;-79
2022/02/17 06:04:17;;;;;;;46.80;31.42;;;;;;;;;;794402;74;26387;-78
2022/02/17 06:05:20;;;;;;;44.48;31.90;;;;;;;;;;794414;74;26628;-80
2022/02/17 06:06:23;;;;;;;45.43;33.48;;;;;;;;;;794423;74;26428;-78
2022/02/17 06:07:26;;;;;;;43.55;31.42;;;;;;;;;;794592;74;26565;-77
2022/02/17 06:08:29;;;;;;;50.03;32.60;;;;;;;;;;794497;74;26414;-80
2022/02/17 06:09:32;;;;;;;48.78;32.85;;;;;;;;;;794870;74;26270;-78
2022/02/17 06:10:35;;;;;;;47.45;33.05;;;;;;;;;;794498;74;26284;-79
2022/02/17 06:11:37;;;;;;;44.93;32.70;;;;;;;;;;794477;74;26281;-78
2022/02/17 06:12:41;;;;;;;46.70;33.92;;;;;;;;;;794357;74;26281;-78
2022/02/17 06:13:43;;;;;;;49.50;33.28;;;;;;;;;;794604;74;26668;-78